sensor_id;sensor_type;location;lat;lon;timestamp;temperature;humidity
67502;SHT30;54349;52.528;19.760;2022-08-24T00:02:01;23.47;67.86
67502;SHT30;54349;52.528;19.760;2022-08-24T00:04:31;23.59;67.37
67502;SHT30;54349;52.528;19.760;2022-08-24T00:07:00;23.55;65.30
67502;SHT30;54349;52.528;19.760;2022-08-24T00:09:31;23.36;64.60
67502;SHT30;54349;52.528;19.760;2022-08-24T00:12:00;23.17;64.63
67502;SHT30;54349;52.528;19.760;2022-08-24T00:14:30;23.17;67.33
67502;SHT30;54349;52.528;19.760;2022-08-24T00:16:58;23.32;68.06
67502;SHT30;54349;52.528;19.760;2022-08-24T00:19:28;23.49;68.09
67502;SHT30;54349;52.528;19.760;2022-08-24T00:21:56;23.65;67.93
67502;SHT30;54349;52.528;19.760;2022-08-24T00:24:25;23.75;66.17
67502;SHT30;54349;52.528;19.760;2022-08-24T00:26:54;23.62;64.51
67502;SHT30;54349;52.528;19.760;2022-08-24T00:29:23;23.43;64.19
67502;SHT30;54349;52.528;19.760;2022-08-24T00:31:51;23.27;63.93
67502;SHT30;54349;52.528;19.760;2022-08-24T00:34:20;23.25;66.74
67502;SHT30;54349;52.528;19.760;2022-08-24T00:36:48;23.40;67.70
67502;SHT30;54349;52.528;19.760;2022-08-24T00:39:16;23.56;67.74
67502;SHT30;54349;52.528;19.760;2022-08-24T00:41:46;23.70;67.60
67502;SHT30;54349;52.528;19.760;2022-08-24T00:44:17;23.71;65.55
67502;SHT30;54349;52.528;19.760;2022-08-24T00:46:53;23.51;64.63
67502;SHT30;54349;52.528;19.760;2022-08-24T00:52:08;23.14;64.81
67502;SHT30;54349;52.528;19.760;2022-08-24T00:54:47;23.19;67.66
67502;SHT30;54349;52.528;19.760;2022-08-24T00:57:24;23.36;68.05
67502;SHT30;54349;52.528;19.760;2022-08-24T01:03:16;23.65;66.26
67502;SHT30;54349;52.528;19.760;2022-08-24T01:05:45;23.52;64.97
67502;SHT30;54349;52.528;19.760;2022-08-24T01:08:14;23.35;64.49
67502;SHT30;54349;52.528;19.760;2022-08-24T01:10:45;23.19;64.46
67502;SHT30;54349;52.528;19.760;2022-08-24T01:13:19;23.21;67.40
67502;SHT30;54349;52.528;19.760;2022-08-24T01:15:52;23.38;68.05
67502;SHT30;54349;52.528;19.760;2022-08-24T01:18:26;23.54;68.08
67502;SHT30;54349;52.528;19.760;2022-08-24T01:21:16;23.69;67.95
67502;SHT30;54349;52.528;19.760;2022-08-24T01:23:54;23.69;65.60
67502;SHT30;54349;52.528;19.760;2022-08-24T01:29:16;23.27;64.49
67502;SHT30;54349;52.528;19.760;2022-08-24T01:31:50;23.11;65.13
67502;SHT30;54349;52.528;19.760;2022-08-24T01:34:19;23.18;67.91
67502;SHT30;54349;52.528;19.760;2022-08-24T01:36:50;23.33;68.32
67502;SHT30;54349;52.528;19.760;2022-08-24T01:39:28;23.51;68.30
67502;SHT30;54349;52.528;19.760;2022-08-24T01:42:01;23.67;68.10
67502;SHT30;54349;52.528;19.760;2022-08-24T01:44:30;23.68;65.74
67502;SHT30;54349;52.528;19.760;2022-08-24T01:47:02;23.51;64.97
67502;SHT30;54349;52.528;19.760;2022-08-24T01:49:36;23.33;64.61
67502;SHT30;54349;52.528;19.760;2022-08-24T01:52:10;23.16;64.41
67502;SHT30;54349;52.528;19.760;2022-08-24T01:54:40;23.16;67.40
67502;SHT30;54349;52.528;19.760;2022-08-24T01:57:10;23.31;68.27
67502;SHT30;54349;52.528;19.760;2022-08-24T01:59:43;23.47;68.27
67502;SHT30;54349;52.528;19.760;2022-08-24T02:02:14;23.61;68.17
67502;SHT30;54349;52.528;19.760;2022-08-24T02:04:48;23.68;66.61
67502;SHT30;54349;52.528;19.760;2022-08-24T02:07:17;23.51;65.07
67502;SHT30;54349;52.528;19.760;2022-08-24T02:09:46;23.32;64.82
67502;SHT30;54349;52.528;19.760;2022-08-24T02:12:15;23.13;64.46
67502;SHT30;54349;52.528;19.760;2022-08-24T02:14:45;23.08;67.19
67502;SHT30;54349;52.528;19.760;2022-08-24T02:17:14;23.21;68.48
67502;SHT30;54349;52.528;19.760;2022-08-24T02:19:45;23.40;68.58
67502;SHT30;54349;52.528;19.760;2022-08-24T02:22:15;23.57;68.51
67502;SHT30;54349;52.528;19.760;2022-08-24T02:24:43;23.63;66.52
67502;SHT30;54349;52.528;19.760;2022-08-24T02:27:11;23.50;65.27
67502;SHT30;54349;52.528;19.760;2022-08-24T02:29:41;23.34;64.93
67502;SHT30;54349;52.528;19.760;2022-08-24T02:32:10;23.18;64.36
67502;SHT30;54349;52.528;19.760;2022-08-24T02:34:39;23.08;66.27
67502;SHT30;54349;52.528;19.760;2022-08-24T02:37:08;23.22;68.34
67502;SHT30;54349;52.528;19.760;2022-08-24T02:39:36;23.39;68.54
67502;SHT30;54349;52.528;19.760;2022-08-24T02:42:06;23.55;68.50
67502;SHT30;54349;52.528;19.760;2022-08-24T02:44:34;23.67;68.10
67502;SHT30;54349;52.528;19.760;2022-08-24T02:47:02;23.61;65.94
67502;SHT30;54349;52.528;19.760;2022-08-24T02:49:32;23.42;65.18
67502;SHT30;54349;52.528;19.760;2022-08-24T02:52:02;23.22;64.95
67502;SHT30;54349;52.528;19.760;2022-08-24T02:54:31;23.09;66.16
67502;SHT30;54349;52.528;19.760;2022-08-24T02:57:00;23.19;68.56
67502;SHT30;54349;52.528;19.760;2022-08-24T02:59:28;23.38;68.88
67502;SHT30;54349;52.528;19.760;2022-08-24T03:01:56;23.54;68.79
67502;SHT30;54349;52.528;19.760;2022-08-24T03:04:25;23.67;67.74
67502;SHT30;54349;52.528;19.760;2022-08-24T03:06:54;23.61;65.56
67502;SHT30;54349;52.528;19.760;2022-08-24T03:09:23;23.43;64.67
67502;SHT30;54349;52.528;19.760;2022-08-24T03:11:56;23.25;64.18
67502;SHT30;54349;52.528;19.760;2022-08-24T03:14:24;23.10;64.24
67502;SHT30;54349;52.528;19.760;2022-08-24T03:16:53;23.12;67.39
67502;SHT30;54349;52.528;19.760;2022-08-24T03:19:21;23.29;68.18
67502;SHT30;54349;52.528;19.760;2022-08-24T03:21:50;23.46;68.30
67502;SHT30;54349;52.528;19.760;2022-08-24T03:24:20;23.59;68.31
67502;SHT30;54349;52.528;19.760;2022-08-24T03:26:49;23.64;66.84
67502;SHT30;54349;52.528;19.760;2022-08-24T03:29:18;23.50;65.41
67502;SHT30;54349;52.528;19.760;2022-08-24T03:31:50;23.29;65.06
67502;SHT30;54349;52.528;19.760;2022-08-24T03:34:18;23.13;65.27
67502;SHT30;54349;52.528;19.760;2022-08-24T03:36:47;23.15;68.13
67502;SHT30;54349;52.528;19.760;2022-08-24T03:39:15;23.31;68.79
67502;SHT30;54349;52.528;19.760;2022-08-24T03:41:45;23.49;68.79
67502;SHT30;54349;52.528;19.760;2022-08-24T03:44:13;23.65;68.53
67502;SHT30;54349;52.528;19.760;2022-08-24T03:46:41;23.67;66.25
67502;SHT30;54349;52.528;19.760;2022-08-24T03:49:12;23.49;65.21
67502;SHT30;54349;52.528;19.760;2022-08-24T03:51:41;23.30;64.81
67502;SHT30;54349;52.528;19.760;2022-08-24T03:54:10;23.18;65.91
67502;SHT30;54349;52.528;19.760;2022-08-24T03:56:40;23.28;68.42
67502;SHT30;54349;52.528;19.760;2022-08-24T03:59:08;23.45;68.66
67502;SHT30;54349;52.528;19.760;2022-08-24T04:01:39;23.60;68.61
67502;SHT30;54349;52.528;19.760;2022-08-24T04:04:08;23.73;68.45
67502;SHT30;54349;52.528;19.760;2022-08-24T04:06:37;23.68;66.21
67502;SHT30;54349;52.528;19.760;2022-08-24T04:09:05;23.48;65.39
67502;SHT30;54349;52.528;19.760;2022-08-24T04:11:36;23.30;64.99
67502;SHT30;54349;52.528;19.760;2022-08-24T04:14:08;23.14;65.68
67502;SHT30;54349;52.528;19.760;2022-08-24T04:17:01;23.23;68.32
67502;SHT30;54349;52.528;19.760;2022-08-24T04:19:34;23.39;68.59
67502;SHT30;54349;52.528;19.760;2022-08-24T04:22:03;23.55;68.54
67502;SHT30;54349;52.528;19.760;2022-08-24T04:24:31;23.66;67.34
67502;SHT30;54349;52.528;19.760;2022-08-24T04:26:59;23.56;65.61
67502;SHT30;54349;52.528;19.760;2022-08-24T04:29:27;23.39;65.12
67502;SHT30;54349;52.528;19.760;2022-08-24T04:31:56;23.24;64.70
67502;SHT30;54349;52.528;19.760;2022-08-24T04:34:25;23.13;66.54
67502;SHT30;54349;52.528;19.760;2022-08-24T04:36:54;23.25;68.75
67502;SHT30;54349;52.528;19.760;2022-08-24T04:39:22;23.41;69.00
67502;SHT30;54349;52.528;19.760;2022-08-24T04:42:11;23.55;69.06
67502;SHT30;54349;52.528;19.760;2022-08-24T04:44:40;23.67;68.67
67502;SHT30;54349;52.528;19.760;2022-08-24T04:47:08;23.61;66.56
67502;SHT30;54349;52.528;19.760;2022-08-24T04:49:37;23.44;65.75
67502;SHT30;54349;52.528;19.760;2022-08-24T04:52:06;23.28;65.40
67502;SHT30;54349;52.528;19.760;2022-08-24T04:54:38;23.15;65.58
67502;SHT30;54349;52.528;19.760;2022-08-24T04:57:09;23.19;68.71
67502;SHT30;54349;52.528;19.760;2022-08-24T04:59:43;23.36;69.39
67502;SHT30;54349;52.528;19.760;2022-08-24T05:02:12;23.51;69.37
67502;SHT30;54349;52.528;19.760;2022-08-24T05:04:41;23.64;69.02
67502;SHT30;54349;52.528;19.760;2022-08-24T05:07:09;23.59;66.69
67502;SHT30;54349;52.528;19.760;2022-08-24T05:09:39;23.40;66.00
67502;SHT30;54349;52.528;19.760;2022-08-24T05:12:09;23.21;65.67
67502;SHT30;54349;52.528;19.760;2022-08-24T05:14:41;23.05;65.55
67502;SHT30;54349;52.528;19.760;2022-08-24T05:17:09;23.04;68.52
67502;SHT30;54349;52.528;19.760;2022-08-24T05:19:37;23.24;69.42
67502;SHT30;54349;52.528;19.760;2022-08-24T05:22:06;23.44;69.33
67502;SHT30;54349;52.528;19.760;2022-08-24T05:24:36;23.60;68.97
67502;SHT30;54349;52.528;19.760;2022-08-24T05:27:05;23.71;67.25
67502;SHT30;54349;52.528;19.760;2022-08-24T05:29:33;23.59;65.37
67502;SHT30;54349;52.528;19.760;2022-08-24T05:32:03;23.42;64.73
67502;SHT30;54349;52.528;19.760;2022-08-24T05:34:32;23.27;64.91
67502;SHT30;54349;52.528;19.760;2022-08-24T05:37:00;23.34;66.23
67502;SHT30;54349;52.528;19.760;2022-08-24T05:39:37;23.49;66.23
67502;SHT30;54349;52.528;19.760;2022-08-24T05:42:07;23.64;66.03
67502;SHT30;54349;52.528;19.760;2022-08-24T05:44:42;23.75;65.66
67502;SHT30;54349;52.528;19.760;2022-08-24T05:47:10;23.73;63.86
67502;SHT30;54349;52.528;19.760;2022-08-24T05:49:38;23.50;62.74
67502;SHT30;54349;52.528;19.760;2022-08-24T05:52:08;23.31;63.59
67502;SHT30;54349;52.528;19.760;2022-08-24T05:54:36;23.38;64.56
67502;SHT30;54349;52.528;19.760;2022-08-24T05:57:04;23.48;64.53
67502;SHT30;54349;52.528;19.760;2022-08-24T05:59:47;23.60;64.39
67502;SHT30;54349;52.528;19.760;2022-08-24T06:02:17;23.65;63.39
67502;SHT30;54349;52.528;19.760;2022-08-24T06:04:47;23.45;62.11
67502;SHT30;54349;52.528;19.760;2022-08-24T06:07:15;23.25;62.85
67502;SHT30;54349;52.528;19.760;2022-08-24T06:09:48;23.31;63.85
67502;SHT30;54349;52.528;19.760;2022-08-24T06:12:16;23.43;63.84
67502;SHT30;54349;52.528;19.760;2022-08-24T06:14:45;23.53;63.73
67502;SHT30;54349;52.528;19.760;2022-08-24T06:17:18;23.63;63.47
67502;SHT30;54349;52.528;19.760;2022-08-24T06:19:46;23.55;61.96
67502;SHT30;54349;52.528;19.760;2022-08-24T06:22:14;23.33;61.36
67502;SHT30;54349;52.528;19.760;2022-08-24T06:24:44;23.25;62.75
67502;SHT30;54349;52.528;19.760;2022-08-24T06:27:30;23.40;63.10
67502;SHT30;54349;52.528;19.760;2022-08-24T06:30:03;23.54;62.99
67502;SHT30;54349;52.528;19.760;2022-08-24T06:33:08;23.68;62.60
67502;SHT30;54349;52.528;19.760;2022-08-24T06:35:40;23.58;61.19
67502;SHT30;54349;52.528;19.760;2022-08-24T06:38:13;23.32;60.85
67502;SHT30;54349;52.528;19.760;2022-08-24T06:40:44;23.24;62.30
67502;SHT30;54349;52.528;19.760;2022-08-24T06:43:12;23.35;62.63
67502;SHT30;54349;52.528;19.760;2022-08-24T06:45:52;23.48;62.52
67502;SHT30;54349;52.528;19.760;2022-08-24T06:48:27;23.59;62.15
67502;SHT30;54349;52.528;19.760;2022-08-24T06:50:57;23.52;60.52
67502;SHT30;54349;52.528;19.760;2022-08-24T06:53:26;23.27;60.66
67502;SHT30;54349;52.528;19.760;2022-08-24T06:55:56;23.21;61.94
67502;SHT30;54349;52.528;19.760;2022-08-24T06:58:26;23.32;62.17
67502;SHT30;54349;52.528;19.760;2022-08-24T07:00:55;23.45;62.07
67502;SHT30;54349;52.528;19.760;2022-08-24T07:03:24;23.56;62.01
67502;SHT30;54349;52.528;19.760;2022-08-24T07:06:03;23.61;61.59
67502;SHT30;54349;52.528;19.760;2022-08-24T07:08:39;23.44;60.71
67502;SHT30;54349;52.528;19.760;2022-08-24T07:11:10;23.21;60.90
67502;SHT30;54349;52.528;19.760;2022-08-24T07:13:44;23.17;62.02
67502;SHT30;54349;52.528;19.760;2022-08-24T07:16:15;23.28;62.16
67502;SHT30;54349;52.528;19.760;2022-08-24T07:18:49;23.42;62.08
67502;SHT30;54349;52.528;19.760;2022-08-24T07:21:19;23.52;62.00
67502;SHT30;54349;52.528;19.760;2022-08-24T07:23:53;23.49;61.11
67502;SHT30;54349;52.528;19.760;2022-08-24T07:26:25;23.28;60.58
67502;SHT30;54349;52.528;19.760;2022-08-24T07:29:00;23.08;61.16
67502;SHT30;54349;52.528;19.760;2022-08-24T07:31:39;23.14;62.06
67502;SHT30;54349;52.528;19.760;2022-08-24T07:34:14;23.27;62.03
67502;SHT30;54349;52.528;19.760;2022-08-24T07:36:42;23.40;61.93
67502;SHT30;54349;52.528;19.760;2022-08-24T07:39:12;23.47;61.63
67502;SHT30;54349;52.528;19.760;2022-08-24T07:41:41;23.35;61.62
67502;SHT30;54349;52.528;19.760;2022-08-24T07:44:31;23.13;61.36
67502;SHT30;54349;52.528;19.760;2022-08-24T07:46:59;23.03;62.55
67502;SHT30;54349;52.528;19.760;2022-08-24T07:49:49;23.15;62.95
67502;SHT30;54349;52.528;19.760;2022-08-24T07:52:19;23.29;62.83
67502;SHT30;54349;52.528;19.760;2022-08-24T07:54:47;23.44;62.62
67502;SHT30;54349;52.528;19.760;2022-08-24T07:57:16;23.52;61.93
67502;SHT30;54349;52.528;19.760;2022-08-24T07:59:44;23.39;61.06
67502;SHT30;54349;52.528;19.760;2022-08-24T08:02:14;23.23;60.84
67502;SHT30;54349;52.528;19.760;2022-08-24T08:04:48;23.20;61.89
67502;SHT30;54349;52.528;19.760;2022-08-24T08:07:16;23.34;61.97
67502;SHT30;54349;52.528;19.760;2022-08-24T08:09:47;23.49;61.84
67502;SHT30;54349;52.528;19.760;2022-08-24T08:12:16;23.62;61.66
67502;SHT30;54349;52.528;19.760;2022-08-24T08:14:54;23.68;61.31
67502;SHT30;54349;52.528;19.760;2022-08-24T08:17:23;23.55;60.64
67502;SHT30;54349;52.528;19.760;2022-08-24T08:19:53;23.35;60.28
67502;SHT30;54349;52.528;19.760;2022-08-24T08:22:23;23.23;61.14
67502;SHT30;54349;52.528;19.760;2022-08-24T08:25:34;23.34;61.60
67502;SHT30;54349;52.528;19.760;2022-08-24T08:28:08;23.48;61.50
67502;SHT30;54349;52.528;19.760;2022-08-24T08:30:52;23.59;61.35
67502;SHT30;54349;52.528;19.760;2022-08-24T08:33:21;23.66;61.21
67502;SHT30;54349;52.528;19.760;2022-08-24T08:35:52;23.52;60.54
67502;SHT30;54349;52.528;19.760;2022-08-24T08:38:37;23.28;60.41
67502;SHT30;54349;52.528;19.760;2022-08-24T08:44:07;23.37;61.60
67502;SHT30;54349;52.528;19.760;2022-08-24T08:55:30;23.25;60.18
67502;SHT30;54349;52.528;19.760;2022-08-24T08:58:12;23.08;60.86
67502;SHT30;54349;52.528;19.760;2022-08-24T09:22:22;23.41;61.32
67502;SHT30;54349;52.528;19.760;2022-08-24T09:27:51;23.53;60.99
67502;SHT30;54349;52.528;19.760;2022-08-24T09:30:55;23.35;60.50
67502;SHT30;54349;52.528;19.760;2022-08-24T09:33:35;23.17;60.59
67502;SHT30;54349;52.528;19.760;2022-08-24T09:36:11;23.21;61.38
67502;SHT30;54349;52.528;19.760;2022-08-24T09:39:05;23.35;61.37
67502;SHT30;54349;52.528;19.760;2022-08-24T09:44:54;23.59;61.30
67502;SHT30;54349;52.528;19.760;2022-08-24T10:11:26;23.18;60.20
67502;SHT30;54349;52.528;19.760;2022-08-24T10:25:38;23.58;60.88
67502;SHT30;54349;52.528;19.760;2022-08-24T10:28:28;23.47;60.67
67502;SHT30;54349;52.528;19.760;2022-08-24T10:40:24;23.54;60.84
67502;SHT30;54349;52.528;19.760;2022-08-24T11:03:52;23.68;60.59
67502;SHT30;54349;52.528;19.760;2022-08-24T11:06:28;23.73;61.14
67502;SHT30;54349;52.528;19.760;2022-08-24T11:09:09;23.66;60.78
67502;SHT30;54349;52.528;19.760;2022-08-24T11:11:47;23.55;60.50
67502;SHT30;54349;52.528;19.760;2022-08-24T11:17:15;23.27;60.17
67502;SHT30;54349;52.528;19.760;2022-08-24T11:19:48;23.39;60.61
67502;SHT30;54349;52.528;19.760;2022-08-24T11:22:26;23.54;60.54
67502;SHT30;54349;52.528;19.760;2022-08-24T11:25:21;23.71;60.42
67502;SHT30;54349;52.528;19.760;2022-08-24T11:28:11;23.82;60.98
67502;SHT30;54349;52.528;19.760;2022-08-24T11:30:57;23.78;60.86
67502;SHT30;54349;52.528;19.760;2022-08-24T11:33:31;23.68;60.57
67502;SHT30;54349;52.528;19.760;2022-08-24T11:36:17;23.54;59.35
67502;SHT30;54349;52.528;19.760;2022-08-24T11:39:26;23.36;58.83
67502;SHT30;54349;52.528;19.760;2022-08-24T11:47:57;23.67;60.16
67502;SHT30;54349;52.528;19.760;2022-08-24T12:02:21;23.36;59.25
67502;SHT30;54349;52.528;19.760;2022-08-24T12:05:25;23.44;60.20
67502;SHT30;54349;52.528;19.760;2022-08-24T12:13:32;23.86;60.76
67502;SHT30;54349;52.528;19.760;2022-08-24T12:21:53;23.58;59.11
67502;SHT30;54349;52.528;19.760;2022-08-24T12:27:19;23.32;59.83
67502;SHT30;54349;52.528;19.760;2022-08-24T12:30:00;23.47;59.95
67502;SHT30;54349;52.528;19.760;2022-08-24T12:32:54;23.64;59.90
67502;SHT30;54349;52.528;19.760;2022-08-24T12:35:31;23.81;60.44
67502;SHT30;54349;52.528;19.760;2022-08-24T12:40:44;23.76;60.59
67502;SHT30;54349;52.528;19.760;2022-08-24T12:46:09;23.54;58.69
67502;SHT30;54349;52.528;19.760;2022-08-24T12:48:47;23.34;58.72
67502;SHT30;54349;52.528;19.760;2022-08-24T12:51:36;23.39;59.87
67502;SHT30;54349;52.528;19.760;2022-08-24T13:00:22;23.83;60.89
67502;SHT30;54349;52.528;19.760;2022-08-24T13:03:33;23.78;60.65
67502;SHT30;54349;52.528;19.760;2022-08-24T13:06:19;23.67;60.02
67502;SHT30;54349;52.528;19.760;2022-08-24T13:09:07;23.50;58.58
67502;SHT30;54349;52.528;19.760;2022-08-24T13:12:50;23.31;59.37
67502;SHT30;54349;52.528;19.760;2022-08-24T13:33:50;23.42;58.90
67502;SHT30;54349;52.528;19.760;2022-08-24T13:54:01;23.59;58.55
67502;SHT30;54349;52.528;19.760;2022-08-24T14:00:45;23.37;59.61
67502;SHT30;54349;52.528;19.760;2022-08-24T14:09:12;23.88;60.71
67502;SHT30;54349;52.528;19.760;2022-08-24T14:49:51;23.72;59.60
67502;SHT30;54349;52.528;19.760;2022-08-24T14:56:06;23.92;59.45
67502;SHT30;54349;52.528;19.760;2022-08-24T14:59:16;23.78;59.23
67502;SHT30;54349;52.528;19.760;2022-08-24T15:11:06;23.57;59.21
67502;SHT30;54349;52.528;19.760;2022-08-24T15:13:42;23.76;59.15
67502;SHT30;54349;52.528;19.760;2022-08-24T15:19:02;23.89;60.34
67502;SHT30;54349;52.528;19.760;2022-08-24T15:27:58;23.60;57.71
67502;SHT30;54349;52.528;19.760;2022-08-24T15:30:44;23.42;58.43
67502;SHT30;54349;52.528;19.760;2022-08-24T15:33:26;23.54;59.13
67502;SHT30;54349;52.528;19.760;2022-08-24T15:36:05;23.70;59.18
67502;SHT30;54349;52.528;19.760;2022-08-24T15:38:39;23.87;59.38
67502;SHT30;54349;52.528;19.760;2022-08-24T15:41:14;23.96;60.34
67502;SHT30;54349;52.528;19.760;2022-08-24T15:44:00;23.93;60.13
67502;SHT30;54349;52.528;19.760;2022-08-24T15:46:35;23.84;59.56
67502;SHT30;54349;52.528;19.760;2022-08-24T15:51:57;23.57;57.50
67502;SHT30;54349;52.528;19.760;2022-08-24T15:54:43;23.43;58.37
67502;SHT30;54349;52.528;19.760;2022-08-24T15:57:29;23.54;59.01
67502;SHT30;54349;52.528;19.760;2022-08-24T16:00:13;23.72;59.05
67502;SHT30;54349;52.528;19.760;2022-08-24T16:03:26;23.91;59.07
67502;SHT30;54349;52.528;19.760;2022-08-24T16:06:22;23.94;59.57
67502;SHT30;54349;52.528;19.760;2022-08-24T16:11:43;23.73;58.63
67502;SHT30;54349;52.528;19.760;2022-08-24T16:14:27;23.58;57.54
67502;SHT30;54349;52.528;19.760;2022-08-24T16:16:58;23.40;57.82
67502;SHT30;54349;52.528;19.760;2022-08-24T16:19:30;23.42;58.79
67502;SHT30;54349;52.528;19.760;2022-08-24T16:24:37;23.75;58.81
67502;SHT30;54349;52.528;19.760;2022-08-24T16:27:11;23.88;59.13
67502;SHT30;54349;52.528;19.760;2022-08-24T16:29:46;23.93;59.87
67502;SHT30;54349;52.528;19.760;2022-08-24T16:32:27;23.85;59.67
67502;SHT30;54349;52.528;19.760;2022-08-24T16:35:19;23.75;58.87
67502;SHT30;54349;52.528;19.760;2022-08-24T16:37:50;23.60;57.75
67502;SHT30;54349;52.528;19.760;2022-08-24T16:40:19;23.39;57.56
67502;SHT30;54349;52.528;19.760;2022-08-24T16:42:49;23.34;58.79
67502;SHT30;54349;52.528;19.760;2022-08-24T16:45:23;23.49;58.96
67502;SHT30;54349;52.528;19.760;2022-08-24T16:47:51;23.66;58.86
67502;SHT30;54349;52.528;19.760;2022-08-24T16:50:19;23.80;58.97
67502;SHT30;54349;52.528;19.760;2022-08-24T16:52:54;23.86;59.84
67502;SHT30;54349;52.528;19.760;2022-08-24T16:55:22;23.79;59.67
67502;SHT30;54349;52.528;19.760;2022-08-24T16:57:54;23.70;59.20
67502;SHT30;54349;52.528;19.760;2022-08-24T17:00:23;23.57;58.01
67502;SHT30;54349;52.528;19.760;2022-08-24T17:02:51;23.36;57.62
67502;SHT30;54349;52.528;19.760;2022-08-24T17:05:21;23.30;58.96
67502;SHT30;54349;52.528;19.760;2022-08-24T17:07:50;23.45;59.09
67502;SHT30;54349;52.528;19.760;2022-08-24T17:10:18;23.61;58.98
67502;SHT30;54349;52.528;19.760;2022-08-24T17:12:49;23.75;58.98
67502;SHT30;54349;52.528;19.760;2022-08-24T17:15:17;23.82;59.65
67502;SHT30;54349;52.528;19.760;2022-08-24T17:17:52;23.73;59.44
67502;SHT30;54349;52.528;19.760;2022-08-24T17:20:34;23.60;58.76
67502;SHT30;54349;52.528;19.760;2022-08-24T17:23:02;23.44;57.65
67502;SHT30;54349;52.528;19.760;2022-08-24T17:25:31;23.26;57.91
67502;SHT30;54349;52.528;19.760;2022-08-24T17:28:00;23.29;59.01
67502;SHT30;54349;52.528;19.760;2022-08-24T17:30:30;23.44;59.04
67502;SHT30;54349;52.528;19.760;2022-08-24T17:32:58;23.59;58.93
67502;SHT30;54349;52.528;19.760;2022-08-24T17:35:26;23.73;59.16
67502;SHT30;54349;52.528;19.760;2022-08-24T17:37:55;23.74;59.52
67502;SHT30;54349;52.528;19.760;2022-08-24T17:40:32;23.63;59.17
67502;SHT30;54349;52.528;19.760;2022-08-24T17:43:01;23.49;58.40
67502;SHT30;54349;52.528;19.760;2022-08-24T17:45:30;23.30;57.81
67502;SHT30;54349;52.528;19.760;2022-08-24T17:47:58;23.26;59.11
67502;SHT30;54349;52.528;19.760;2022-08-24T17:50:27;23.39;59.28
67502;SHT30;54349;52.528;19.760;2022-08-24T17:52:55;23.53;59.15
67502;SHT30;54349;52.528;19.760;2022-08-24T17:55:27;23.67;59.20
67502;SHT30;54349;52.528;19.760;2022-08-24T17:57:55;23.72;59.66
67502;SHT30;54349;52.528;19.760;2022-08-24T18:00:24;23.64;59.39
67502;SHT30;54349;52.528;19.760;2022-08-24T18:02:52;23.50;58.84
67502;SHT30;54349;52.528;19.760;2022-08-24T18:05:21;23.35;57.84
67502;SHT30;54349;52.528;19.760;2022-08-24T18:07:50;23.23;58.86
67502;SHT30;54349;52.528;19.760;2022-08-24T18:10:22;23.33;59.32
67502;SHT30;54349;52.528;19.760;2022-08-24T18:12:55;23.48;59.25
67502;SHT30;54349;52.528;19.760;2022-08-24T18:15:27;23.61;59.07
67502;SHT30;54349;52.528;19.760;2022-08-24T18:18:04;23.69;59.34
67502;SHT30;54349;52.528;19.760;2022-08-24T18:20:37;23.59;61.16
67502;SHT30;54349;52.528;19.760;2022-08-24T18:23:08;23.46;62.62
67502;SHT30;54349;52.528;19.760;2022-08-24T18:25:41;23.34;62.71
67502;SHT30;54349;52.528;19.760;2022-08-24T18:28:15;23.24;62.87
67502;SHT30;54349;52.528;19.760;2022-08-24T18:30:46;23.16;62.94
67502;SHT30;54349;52.528;19.760;2022-08-24T18:33:15;23.10;63.11
67502;SHT30;54349;52.528;19.760;2022-08-24T18:35:44;23.07;63.23
67502;SHT30;54349;52.528;19.760;2022-08-24T18:38:12;23.05;63.33
67502;SHT30;54349;52.528;19.760;2022-08-24T18:40:41;23.04;63.35
67502;SHT30;54349;52.528;19.760;2022-08-24T18:43:20;23.10;66.00
67502;SHT30;54349;52.528;19.760;2022-08-24T18:45:51;23.34;67.16
67502;SHT30;54349;52.528;19.760;2022-08-24T18:48:38;23.65;67.14
67502;SHT30;54349;52.528;19.760;2022-08-24T18:51:07;23.87;67.06
67502;SHT30;54349;52.528;19.760;2022-08-24T18:53:37;23.99;66.24
67502;SHT30;54349;52.528;19.760;2022-08-24T18:56:06;23.92;65.70
67502;SHT30;54349;52.528;19.760;2022-08-24T18:58:39;23.82;65.30
67502;SHT30;54349;52.528;19.760;2022-08-24T19:01:09;23.72;64.80
67502;SHT30;54349;52.528;19.760;2022-08-24T19:03:38;23.63;64.65
67502;SHT30;54349;52.528;19.760;2022-08-24T19:06:08;23.54;64.23
67502;SHT30;54349;52.528;19.760;2022-08-24T19:08:36;23.45;64.09
67502;SHT30;54349;52.528;19.760;2022-08-24T19:11:04;23.36;64.19
67502;SHT30;54349;52.528;19.760;2022-08-24T19:13:34;23.28;64.13
67502;SHT30;54349;52.528;19.760;2022-08-24T19:16:04;23.26;63.94
67502;SHT30;54349;52.528;19.760;2022-08-24T19:18:33;23.22;63.78
67502;SHT30;54349;52.528;19.760;2022-08-24T19:21:01;23.23;65.17
67502;SHT30;54349;52.528;19.760;2022-08-24T19:23:31;23.40;68.34
67502;SHT30;54349;52.528;19.760;2022-08-24T19:26:03;23.66;68.65
67502;SHT30;54349;52.528;19.760;2022-08-24T19:28:32;23.90;68.65
67502;SHT30;54349;52.528;19.760;2022-08-24T19:31:00;24.09;68.04
67502;SHT30;54349;52.528;19.760;2022-08-24T19:33:35;24.06;66.95
67502;SHT30;54349;52.528;19.760;2022-08-24T19:36:09;24.02;66.54
67502;SHT30;54349;52.528;19.760;2022-08-24T19:38:37;23.98;66.68
67502;SHT30;54349;52.528;19.760;2022-08-24T19:41:08;23.92;66.51
67502;SHT30;54349;52.528;19.760;2022-08-24T19:43:40;23.85;66.17
67502;SHT30;54349;52.528;19.760;2022-08-24T19:46:28;23.77;65.63
67502;SHT30;54349;52.528;19.760;2022-08-24T19:48:56;23.72;65.59
67502;SHT30;54349;52.528;19.760;2022-08-24T19:51:24;23.68;65.39
67502;SHT30;54349;52.528;19.760;2022-08-24T19:53:53;23.61;65.19
67502;SHT30;54349;52.528;19.760;2022-08-24T19:56:21;23.55;65.23
67502;SHT30;54349;52.528;19.760;2022-08-24T19:58:52;23.49;65.15
67502;SHT30;54349;52.528;19.760;2022-08-24T20:01:33;23.44;64.69
67502;SHT30;54349;52.528;19.760;2022-08-24T20:04:04;23.36;64.29
67502;SHT30;54349;52.528;19.760;2022-08-24T20:06:34;23.37;65.83
67502;SHT30;54349;52.528;19.760;2022-08-24T20:09:05;23.61;66.71
67502;SHT30;54349;52.528;19.760;2022-08-24T20:11:35;23.89;66.80
67502;SHT30;54349;52.528;19.760;2022-08-24T20:14:05;24.13;66.64
67502;SHT30;54349;52.528;19.760;2022-08-24T20:16:36;24.23;65.02
67502;SHT30;54349;52.528;19.760;2022-08-24T20:19:11;24.15;64.10
67502;SHT30;54349;52.528;19.760;2022-08-24T20:21:39;24.04;63.29
67502;SHT30;54349;52.528;19.760;2022-08-24T20:24:08;23.92;62.40
67502;SHT30;54349;52.528;19.760;2022-08-24T20:26:40;23.79;61.84
67502;SHT30;54349;52.528;19.760;2022-08-24T20:29:11;23.69;61.44